Time;durP1;ratioP1;P1;durP2;ratioP2;P2;SDS_P1;SDS_P2;PMS_P1;PMS_P2;Temp;Humidity;BMP_temperature;BMP_pressure;BME280_temperature;BME280_humidity;BME280_pressure;Samples;Min_cycle;Max_cycle;Signal;HPM_P1;HPM_P2
2023/03/05 02:31:50;;;;;;;14.40;7.37;;;1.70;91.80;;;;;;5434041;23;20228;-90
2023/03/05 02:34:15;;;;;;;13.40;6.80;;;1.60;91.70;;;;;;4980394;28;20594;-90
2023/03/05 02:36:41;;;;;;;10.90;7.10;;;1.50;91.80;;;;;;4997659;28;20601;-90
2023/03/05 02:39:08;;;;;;;12.33;7.23;;;1.40;91.80;;;;;;4997635;28;20261;-90
2023/03/05 02:41:34;;;;;;;11.07;7.00;;;1.40;91.90;;;;;;4997583;28;20546;-90
2023/03/05 02:43:59;;;;;;;17.00;7.27;;;1.40;91.90;;;;;;4997584;28;20260;-90
2023/03/05 02:46:25;;;;;;;8.50;7.20;;;1.40;91.90;;;;;;4980089;28;20224;-90
2023/03/05 02:48:50;;;;;;;8.37;7.37;;;1.40;92.00;;;;;;4997493;28;20209;-90
2023/03/05 02:51:16;;;;;;;9.37;7.93;;;1.30;92.10;;;;;;4980052;28;20717;-90
2023/03/05 02:53:42;;;;;;;8.33;7.67;;;1.30;92.10;;;;;;4997523;28;20170;-90
2023/03/05 02:56:07;;;;;;;7.87;7.13;;;1.30;92.20;;;;;;4997407;28;20177;-90
2023/03/05 02:58:33;;;;;;;11.20;7.80;;;1.30;92.10;;;;;;4997613;28;20177;-90
2023/03/05 03:00:59;;;;;;;8.47;7.43;;;1.30;92.10;;;;;;4979941;28;20177;-90
2023/03/05 03:03:24;;;;;;;9.37;7.73;;;1.30;92.20;;;;;;4979864;28;20186;-90
2023/03/05 03:05:50;;;;;;;12.83;7.87;;;1.20;92.10;;;;;;4997211;28;20176;-90
2023/03/05 03:08:15;;;;;;;15.23;7.30;;;1.20;92.00;;;;;;4997000;28;20198;-90
2023/03/05 03:10:41;;;;;;;10.63;7.43;;;1.20;91.90;;;;;;4979764;28;20177;-89
2023/03/05 03:13:06;;;;;;;14.93;7.00;;;1.20;91.90;;;;;;4997186;28;20175;-90
2023/03/05 03:15:32;;;;;;;9.00;6.60;;;1.20;91.80;;;;;;4979650;28;20229;-90
2023/03/05 03:17:57;;;;;;;9.97;6.67;;;1.20;91.70;;;;;;4979601;28;20290;-90
2023/03/05 03:20:23;;;;;;;8.97;6.53;;;1.10;91.60;;;;;;4997102;28;20174;-90
2023/03/05 03:22:49;;;;;;;9.07;6.00;;;1.10;91.60;;;;;;4996884;28;20182;-90
2023/03/05 03:25:20;;;;;;;7.60;6.90;;;1.10;91.50;;;;;;4996908;28;20177;-90
2023/03/05 03:27:45;;;;;;;8.27;7.00;;;1.10;91.40;;;;;;4979469;28;20590;-90
2023/03/05 03:30:12;;;;;;;13.40;6.87;;;1.10;91.50;;;;;;4996812;28;20266;-90
2023/03/05 03:32:38;;;;;;;7.23;6.50;;;1.10;91.50;;;;;;4997282;28;20213;-90
2023/03/05 03:35:04;;;;;;;10.30;6.73;;;1.20;91.50;;;;;;4996235;28;20209;-90
2023/03/05 03:37:30;;;;;;;8.33;6.80;;;1.20;91.40;;;;;;4979020;28;20204;-90
2023/03/05 03:39:56;;;;;;;8.93;6.80;;;1.20;91.40;;;;;;4996544;28;20178;-90
2023/03/05 03:42:23;;;;;;;10.50;6.90;;;1.20;91.40;;;;;;4979083;28;20637;-90
2023/03/05 03:44:49;;;;;;;9.47;7.27;;;1.30;91.40;;;;;;4996425;28;20176;-90
2023/03/05 03:47:15;;;;;;;13.80;8.20;;;1.20;91.40;;;;;;4996689;28;20237;-91
2023/03/05 03:49:41;;;;;;;10.27;7.80;;;1.20;91.40;;;;;;4978959;28;20280;-90
2023/03/05 03:52:06;;;;;;;11.27;7.17;;;1.20;91.60;;;;;;4996560;28;20293;-90
2023/03/05 03:54:32;;;;;;;12.80;6.70;;;1.20;91.90;;;;;;4978813;28;20190;-90
2023/03/05 03:56:58;;;;;;;10.23;7.90;;;1.30;91.90;;;;;;4978705;28;20234;-90
2023/03/05 03:59:23;;;;;;;8.37;7.57;;;1.20;92.10;;;;;;4996301;28;20690;-90
2023/03/05 04:01:49;;;;;;;15.33;7.73;;;1.20;92.20;;;;;;4978853;28;20273;-90
2023/03/05 04:04:15;;;;;;;12.07;9.03;;;1.20;92.20;;;;;;4996425;28;20182;-90
2023/03/05 04:06:40;;;;;;;17.17;8.10;;;1.20;92.20;;;;;;4978597;28;20202;-90
2023/03/05 04:09:09;;;;;;;14.60;7.80;;;1.30;92.30;;;;;;4978706;28;20186;-90
2023/03/05 04:11:36;;;;;;;8.70;6.53;;;1.30;92.30;;;;;;4978451;28;20216;-90
2023/03/05 04:14:03;;;;;;;17.43;7.73;;;1.20;92.40;;;;;;4978622;28;20692;-90
2023/03/05 04:16:28;;;;;;;13.07;7.73;;;1.20;92.40;;;;;;4995838;28;20197;-90
2023/03/05 04:18:54;;;;;;;11.67;7.43;;;1.20;92.40;;;;;;4995884;28;20192;-90
2023/03/05 04:21:19;;;;;;;10.00;7.23;;;1.30;92.50;;;;;;4996002;28;20193;-90
2023/03/05 04:23:45;;;;;;;13.50;7.70;;;1.30;92.40;;;;;;4995836;28;20192;-90
2023/03/05 04:26:10;;;;;;;16.47;8.77;;;1.30;92.50;;;;;;4995676;28;20653;-90
2023/03/05 04:28:36;;;;;;;10.67;7.03;;;1.30;92.40;;;;;;4995682;28;20554;-91
2023/03/05 04:31:04;;;;;;;9.33;8.23;;;1.30;92.40;;;;;;4995712;28;20204;-90
2023/03/05 04:33:29;;;;;;;17.47;7.77;;;1.30;92.30;;;;;;4995617;28;20644;-90
2023/03/05 04:35:55;;;;;;;8.97;6.80;;;1.30;92.40;;;;;;4995601;28;20333;-90
2023/03/05 04:38:20;;;;;;;11.27;7.90;;;1.50;92.30;;;;;;4995749;28;20203;-90
2023/03/05 04:40:47;;;;;;;16.70;8.00;;;1.50;92.20;;;;;;4978293;28;20223;-90
2023/03/05 04:43:12;;;;;;;11.23;6.50;;;1.50;91.90;;;;;;4995673;28;20531;-90
2023/03/05 04:45:40;;;;;;;11.80;6.40;;;1.50;91.60;;;;;;4995807;28;20173;-90
2023/03/05 04:48:05;;;;;;;13.37;7.20;;;1.50;91.50;;;;;;4994260;28;20201;-90
2023/03/05 04:50:31;;;;;;;7.57;6.83;;;1.50;91.40;;;;;;4977878;28;20186;-90
2023/03/05 04:52:59;;;;;;;7.97;7.33;;;1.60;91.40;;;;;;4995248;28;20249;-90
2023/03/05 04:55:24;;;;;;;8.57;7.77;;;1.50;91.50;;;;;;4995265;28;20239;-90
2023/03/05 04:57:50;;;;;;;8.30;7.53;;;1.50;91.50;;;;;;4977644;28;20198;-90
2023/03/05 05:00:16;;;;;;;9.47;7.43;;;1.40;91.50;;;;;;4977596;28;20180;-90
2023/03/05 05:02:47;;;;;;;13.03;8.03;;;1.30;91.50;;;;;;4994960;28;20180;-90
2023/03/05 05:05:24;;;;;;;8.47;7.40;;;1.30;91.60;;;;;;4995151;28;20174;-90
2023/03/05 05:07:54;;;;;;;16.17;8.57;;;1.30;91.60;;;;;;4995006;28;20201;-91
2023/03/05 05:10:19;;;;;;;11.37;7.37;;;1.30;91.60;;;;;;4994931;28;20177;-90
2023/03/05 05:12:45;;;;;;;11.97;7.97;;;1.30;91.60;;;;;;4994793;28;20208;-91
2023/03/05 05:15:11;;;;;;;8.60;7.77;;;1.30;91.60;;;;;;4977597;28;20204;-91
2023/03/05 05:17:37;;;;;;;7.87;6.90;;;1.30;91.60;;;;;;4994647;28;20204;-90
2023/03/05 05:20:07;;;;;;;10.27;7.53;;;1.30;91.50;;;;;;4977453;28;20176;-90
2023/03/05 05:22:34;;;;;;;8.23;7.30;;;1.30;91.50;;;;;;4978110;28;20193;-90
2023/03/05 05:25:00;;;;;;;8.67;7.07;;;1.30;91.40;;;;;;4994536;28;20188;-90
2023/03/05 05:27:25;;;;;;;11.33;6.87;;;1.30;91.30;;;;;;4977099;28;20209;-90
2023/03/05 05:29:51;;;;;;;8.07;7.27;;;1.40;91.30;;;;;;4994599;28;20264;-90
2023/03/05 05:32:18;;;;;;;8.90;6.50;;;1.30;91.20;;;;;;4994593;28;20202;-90
2023/03/05 05:34:44;;;;;;;10.93;6.87;;;1.30;91.00;;;;;;4976898;28;20181;-90
2023/03/05 05:37:10;;;;;;;7.13;6.53;;;1.30;90.90;;;;;;4977023;28;20587;-90
2023/03/05 05:39:35;;;;;;;7.20;6.60;;;1.40;90.80;;;;;;4994360;28;20223;-90
2023/03/05 05:42:02;;;;;;;7.73;7.00;;;1.30;90.60;;;;;;4994309;28;20547;-90
2023/03/05 05:44:27;;;;;;;7.97;6.87;;;1.30;90.50;;;;;;4976969;28;20204;-90
2023/03/05 05:46:53;;;;;;;7.30;6.60;;;1.40;90.50;;;;;;4994084;28;20224;-90
2023/03/05 05:49:18;;;;;;;7.73;7.00;;;1.40;90.50;;;;;;4994181;28;20278;-90
2023/03/05 05:51:44;;;;;;;11.17;7.10;;;1.30;90.40;;;;;;4994419;28;20232;-90
2023/03/05 05:54:12;;;;;;;7.50;6.60;;;1.40;90.40;;;;;;4994138;28;20166;-90
2023/03/05 05:56:38;;;;;;;9.13;7.13;;;1.40;90.40;;;;;;4976692;28;20200;-90
2023/03/05 05:59:03;;;;;;;7.60;6.90;;;1.40;90.40;;;;;;4994094;28;20181;-90
2023/03/05 06:01:31;;;;;;;17.50;7.53;;;1.40;90.50;;;;;;4976658;28;20553;-90
2023/03/05 06:03:57;;;;;;;9.60;7.20;;;1.40;90.60;;;;;;4994046;28;20188;-90
2023/03/05 06:06:25;;;;;;;11.37;8.40;;;1.40;90.70;;;;;;4976497;28;20899;-90
2023/03/05 06:08:52;;;;;;;8.77;7.70;;;1.40;90.70;;;;;;4993935;28;20188;-90
2023/03/05 06:11:18;;;;;;;14.50;7.90;;;1.40;90.80;;;;;;4994101;28;20207;-90
2023/03/05 06:13:43;;;;;;;12.47;8.17;;;1.40;91.00;;;;;;4993934;28;20179;-90
2023/03/05 06:16:16;;;;;;;9.00;8.03;;;1.40;91.10;;;;;;4976770;28;20174;-90
2023/03/05 06:18:41;;;;;;;10.03;8.00;;;1.40;91.20;;;;;;4993925;28;20236;-90
2023/03/05 06:21:13;;;;;;;9.47;8.67;;;1.40;91.20;;;;;;4976548;28;20185;-90
2023/03/05 06:23:39;;;;;;;11.07;8.60;;;1.40;91.40;;;;;;4976504;28;20260;-90
2023/03/05 06:26:06;;;;;;;8.53;7.77;;;1.40;91.50;;;;;;4976355;28;20248;-90
2023/03/05 06:28:32;;;;;;;9.73;8.70;;;1.40;91.50;;;;;;4976166;28;20219;-90
2023/03/05 06:31:15;;;;;;;9.90;8.90;;;1.40;91.70;;;;;;4993631;28;20603;-90
2023/03/05 06:33:41;;;;;;;10.10;8.20;;;1.50;91.80;;;;;;4976493;28;20174;-90
2023/03/05 06:36:10;;;;;;;11.20;8.40;;;1.50;91.80;;;;;;4976184;28;20735;-90
2023/03/05 06:38:36;;;;;;;11.40;8.37;;;1.60;91.90;;;;;;4993596;28;20185;-90
2023/03/05 06:41:08;;;;;;;11.87;9.43;;;1.60;91.90;;;;;;4993864;28;20219;-91
2023/03/05 06:43:36;;;;;;;13.03;8.07;;;1.60;91.90;;;;;;4976271;28;20178;-90
2023/03/05 06:46:10;;;;;;;11.83;9.17;;;1.60;92.00;;;;;;4993610;28;20175;-90
2023/03/05 06:48:36;;;;;;;13.57;9.00;;;1.50;92.00;;;;;;4993578;28;20221;-90
2023/03/05 06:51:02;;;;;;;10.50;8.90;;;1.50;92.00;;;;;;4976185;28;20185;-90
2023/03/05 06:53:28;;;;;;;12.23;8.63;;;1.60;92.00;;;;;;4976195;28;20526;-90
2023/03/05 06:55:54;;;;;;;10.83;9.33;;;1.60;92.00;;;;;;4976185;28;20185;-90
2023/03/05 06:58:20;;;;;;;9.43;8.07;;;1.60;91.90;;;;;;4993673;28;20201;-90
2023/03/05 07:00:46;;;;;;;9.57;8.23;;;1.60;91.90;;;;;;4994148;28;20189;-90
2023/03/05 07:03:12;;;;;;;9.73;8.97;;;1.50;91.90;;;;;;4976023;28;20186;-90
2023/03/05 07:05:41;;;;;;;9.67;8.57;;;1.60;91.90;;;;;;4993467;28;20178;-90
2023/03/05 07:08:07;;;;;;;15.07;8.53;;;1.60;91.90;;;;;;4993288;28;20202;-91
2023/03/05 07:10:40;;;;;;;10.83;8.50;;;1.60;91.90;;;;;;4994015;28;20219;-91
2023/03/05 07:13:07;;;;;;;11.73;9.17;;;1.60;91.80;;;;;;4997104;28;20197;-90
2023/03/05 07:15:33;;;;;;;11.03;10.00;;;1.60;91.80;;;;;;4997400;28;20177;-90
2023/03/05 07:17:58;;;;;;;12.37;8.97;;;1.50;91.80;;;;;;4996966;28;20194;-90
2023/03/05 07:20:24;;;;;;;12.10;9.47;;;1.60;91.80;;;;;;4996965;28;20181;-90
2023/03/05 07:22:50;;;;;;;14.77;10.27;;;1.60;91.90;;;;;;4996867;28;20555;-90
2023/03/05 07:25:20;;;;;;;16.47;9.50;;;1.70;91.90;;;;;;4996894;28;20201;-90
2023/03/05 07:27:47;;;;;;;13.03;9.33;;;1.70;91.90;;;;;;4996788;28;20201;-90
2023/03/05 07:30:13;;;;;;;14.63;8.87;;;1.70;91.80;;;;;;4996751;28;20185;-90
2023/03/05 07:32:38;;;;;;;10.13;9.10;;;1.80;91.80;;;;;;4997447;28;20288;-90
2023/03/05 07:35:04;;;;;;;13.60;9.50;;;1.80;91.70;;;;;;4979596;28;20673;-90
2023/03/05 07:37:30;;;;;;;13.73;9.23;;;1.80;91.70;;;;;;4979647;28;20200;-90
2023/03/05 07:39:56;;;;;;;11.07;8.80;;;1.80;91.60;;;;;;4996546;28;20257;-90
2023/03/05 07:42:21;;;;;;;12.00;8.80;;;1.80;91.60;;;;;;4996533;28;20555;-90
2023/03/05 07:44:47;;;;;;;13.23;8.73;;;1.80;91.50;;;;;;4979247;28;20532;-90
2023/03/05 07:47:12;;;;;;;13.27;9.00;;;1.90;91.40;;;;;;4996501;28;20228;-88
2023/03/05 07:49:40;;;;;;;9.33;8.60;;;1.90;91.40;;;;;;4996420;28;20189;-88
2023/03/05 07:52:06;;;;;;;12.13;9.20;;;2.00;91.50;;;;;;4996295;28;20675;-88
2023/03/05 07:54:36;;;;;;;13.00;8.90;;;2.00;91.30;;;;;;4996371;28;20182;-89
2023/03/05 07:57:05;;;;;;;17.90;8.63;;;2.10;91.40;;;;;;4978827;28;20232;-89
2023/03/05 07:59:31;;;;;;;14.37;8.63;;;2.10;91.20;;;;;;4996214;28;20258;-88
2023/03/05 08:01:57;;;;;;;11.30;8.03;;;2.10;91.10;;;;;;4978835;28;20214;-89
2023/03/05 08:04:23;;;;;;;9.10;8.27;;;2.20;91.20;;;;;;4979116;28;20185;-89
2023/03/05 08:06:48;;;;;;;9.13;8.17;;;2.20;91.00;;;;;;4996784;28;20197;-90
2023/03/05 08:09:15;;;;;;;10.07;9.10;;;2.20;91.00;;;;;;4996312;28;20181;-90
2023/03/05 08:11:41;;;;;;;9.60;8.67;;;2.20;90.90;;;;;;4996008;28;20210;-90
2023/03/05 08:14:07;;;;;;;10.40;9.20;;;2.30;90.90;;;;;;4978636;28;20233;-90
2023/03/05 08:16:32;;;;;;;9.93;8.93;;;2.20;90.80;;;;;;4995841;28;20233;-90
2023/03/05 08:18:58;;;;;;;13.23;8.50;;;2.20;90.70;;;;;;4996205;28;20208;-90
2023/03/05 08:21:34;;;;;;;17.13;9.37;;;2.30;90.90;;;;;;4995753;28;20174;-90
2023/03/05 08:24:03;;;;;;;9.00;8.10;;;2.50;91.00;;;;;;4996033;28;20174;-89
2023/03/05 08:26:30;;;;;;;11.43;8.23;;;2.50;90.70;;;;;;4995724;28;20248;-90
2023/03/05 08:28:56;;;;;;;12.17;8.57;;;2.40;90.30;;;;;;4995803;28;20240;-90
2023/03/05 08:31:24;;;;;;;11.87;8.77;;;2.50;90.30;;;;;;4978179;28;20213;-90
2023/03/05 08:33:52;;;;;;;11.30;7.83;;;2.60;90.10;;;;;;4995891;28;20166;-90
2023/03/05 08:36:18;;;;;;;11.10;8.00;;;2.60;89.60;;;;;;4995434;28;20320;-90
2023/03/05 08:38:45;;;;;;;10.10;7.77;;;2.50;88.90;;;;;;4995550;28;20178;-90
2023/03/05 08:41:11;;;;;;;12.63;7.53;;;2.60;88.80;;;;;;4978047;28;20208;-90
2023/03/05 08:43:37;;;;;;;8.60;7.70;;;2.70;88.50;;;;;;4978043;28;20186;-90
2023/03/05 08:46:03;;;;;;;9.30;7.43;;;2.80;88.50;;;;;;4995356;28;20175;-90
2023/03/05 08:48:29;;;;;;;13.00;7.77;;;2.90;88.00;;;;;;4977930;28;20189;-90
2023/03/05 08:50:56;;;;;;;8.53;7.73;;;3.00;88.20;;;;;;4978625;28;20182;-90
2023/03/05 08:53:22;;;;;;;9.07;8.23;;;3.00;88.20;;;;;;4978167;28;20640;-90
2023/03/05 08:55:57;;;;;;;17.40;8.20;;;2.90;87.70;;;;;;4995479;28;20170;-90
2023/03/05 08:58:23;;;;;;;13.93;8.53;;;3.00;87.80;;;;;;4995388;28;20672;-90
2023/03/05 09:00:49;;;;;;;11.40;7.83;;;3.20;88.00;;;;;;4995562;28;20229;-90
2023/03/05 09:03:15;;;;;;;11.93;9.10;;;3.10;87.60;;;;;;4995045;28;20174;-90
2023/03/05 09:05:40;;;;;;;8.57;7.83;;;3.20;87.90;;;;;;4994972;28;20182;-89
2023/03/05 09:08:06;;;;;;;9.53;8.17;;;3.20;88.00;;;;;;4977738;28;20240;-89
2023/03/05 09:10:31;;;;;;;13.10;8.70;;;3.30;87.90;;;;;;4977500;28;20181;-89
2023/03/05 09:12:57;;;;;;;12.07;8.60;;;3.40;88.10;;;;;;4995032;28;20245;-89
2023/03/05 09:15:22;;;;;;;11.37;8.47;;;3.40;87.20;;;;;;4978216;28;20179;-89
2023/03/05 09:17:48;;;;;;;8.93;8.03;;;3.60;87.30;;;;;;4994717;28;20200;-89
2023/03/05 09:20:14;;;;;;;9.63;8.63;;;3.70;86.20;;;;;;4977679;28;20258;-90
2023/03/05 09:22:40;;;;;;;8.30;7.60;;;3.70;84.80;;;;;;4977493;28;20205;-89
2023/03/05 09:25:07;;;;;;;10.83;8.97;;;3.60;84.20;;;;;;4977535;28;20198;-89
2023/03/05 09:27:34;;;;;;;10.67;9.10;;;3.70;84.40;;;;;;4994638;28;20194;-89
2023/03/05 09:29:59;;;;;;;12.97;8.70;;;3.80;84.60;;;;;;4994826;28;20182;-89
2023/03/05 09:32:25;;;;;;;14.00;8.50;;;4.00;84.80;;;;;;4977176;28;20356;-90
2023/03/05 09:34:50;;;;;;;14.93;8.53;;;4.20;84.80;;;;;;4977573;28;20184;-90
2023/03/05 09:37:16;;;;;;;14.27;8.80;;;4.30;84.60;;;;;;4994583;28;20201;-89
2023/03/05 09:39:41;;;;;;;11.53;9.43;;;4.20;83.80;;;;;;4977207;28;20172;-89
2023/03/05 09:42:52;;;;;;;9.87;9.23;;;4.10;82.20;;;;;;4977344;28;20181;-89
2023/03/05 09:45:43;;;;;;;10.33;8.80;;;4.10;83.30;;;;;;4994369;28;20624;-89
2023/03/05 09:48:21;;;;;;;9.53;8.70;;;4.00;83.80;;;;;;4976808;28;20198;-89
2023/03/05 09:50:51;;;;;;;9.53;8.83;;;3.80;83.50;;;;;;4977613;28;20617;-89
2023/03/05 09:53:22;;;;;;;9.33;8.53;;;3.70;83.40;;;;;;4976613;28;20223;-89
2023/03/05 09:55:52;;;;;;;9.70;8.07;;;3.80;84.60;;;;;;4976965;28;20178;-89
2023/03/05 09:58:25;;;;;;;8.70;8.03;;;3.40;86.00;;;;;;4976629;28;20264;-89
2023/03/05 10:00:58;;;;;;;9.30;8.57;;;2.90;87.60;;;;;;4976635;28;20166;-89
2023/03/05 10:03:33;;;;;;;9.90;9.07;;;2.70;88.60;;;;;;4976767;28;20173;-89
2023/03/05 10:06:35;;;;;;;9.87;9.07;;;2.80;89.50;;;;;;4994000;28;20236;-89
2023/03/05 10:09:10;;;;;;;13.43;8.23;;;3.00;90.00;;;;;;4981207;28;20200;-90
2023/03/05 10:11:56;;;;;;;8.23;7.53;;;3.30;90.00;;;;;;4976469;28;20209;-89
2023/03/05 10:14:33;;;;;;;9.73;7.37;;;3.40;89.90;;;;;;4977741;28;20173;-90
2023/03/05 10:17:28;;;;;;;8.07;7.30;;;3.60;89.60;;;;;;4976449;28;20201;-89
2023/03/05 10:20:31;;;;;;;7.80;7.20;;;3.70;89.10;;;;;;4947306;28;20182;-89
2023/03/05 10:23:28;;;;;;;8.00;7.40;;;3.80;88.30;;;;;;4976358;28;20236;-89
2023/03/05 10:26:03;;;;;;;13.50;7.83;;;4.10;88.10;;;;;;4976441;28;20174;-90
2023/03/05 10:28:42;;;;;;;8.47;7.33;;;4.30;87.40;;;;;;4976357;28;20169;-89
2023/03/05 10:31:23;;;;;;;7.63;7.03;;;4.30;86.50;;;;;;4976689;28;20202;-89
2023/03/05 10:34:21;;;;;;;8.10;7.40;;;4.60;86.10;;;;;;4976355;28;20536;-89
2023/03/05 10:37:21;;;;;;;10.73;7.90;;;4.80;85.10;;;;;;4977018;28;20293;-89
2023/03/05 10:39:56;;;;;;;10.30;8.40;;;4.90;83.20;;;;;;4976283;28;20208;-89
2023/03/05 10:42:43;;;;;;;11.27;9.57;;;5.00;81.80;;;;;;4993949;28;20181;-89
2023/03/05 10:45:16;;;;;;;13.83;10.97;;;5.30;80.80;;;;;;4977084;28;20182;-89
2023/03/05 10:47:54;;;;;;;11.13;10.00;;;5.30;79.50;;;;;;4980183;28;20200;-89
2023/03/05 10:50:28;;;;;;;9.90;9.30;;;5.40;78.70;;;;;;4980938;28;20166;-90
2023/03/05 10:53:15;;;;;;;11.10;10.20;;;5.70;77.70;;;;;;4997443;28;20181;-89
2023/03/05 10:55:41;;;;;;;13.30;11.50;;;5.90;73.90;;;;;;4980195;28;20548;-89
2023/03/05 11:04:34;;;;;;;11.90;10.90;;;5.70;72.50;;;;;;4595773;26;20222;-86
2023/03/05 11:46:04;;;;;;;16.83;15.33;;;5.10;72.30;;;;;;5004946;23;20237;-89
2023/03/05 11:48:35;;;;;;;18.53;17.07;;;5.00;72.80;;;;;;4977282;28;20616;-90
2023/03/05 11:51:05;;;;;;;15.43;10.53;;;5.10;72.70;;;;;;4960412;28;20171;-89
2023/03/05 11:53:35;;;;;;;15.80;14.60;;;5.40;73.00;;;;;;4960489;28;20221;-90
2023/03/05 11:56:12;;;;;;;14.37;13.43;;;5.30;70.60;;;;;;4959674;28;20185;-90
2023/03/05 11:58:51;;;;;;;18.97;17.07;;;5.40;70.70;;;;;;4976953;28;20551;-89
2023/03/05 12:01:20;;;;;;;21.00;19.63;;;5.30;68.80;;;;;;4959564;28;20163;-89
2023/03/05 12:03:46;;;;;;;14.47;13.27;;;5.30;68.10;;;;;;4959482;28;20337;-90
2023/03/05 12:06:11;;;;;;;18.30;17.13;;;5.20;68.40;;;;;;4976623;28;20181;-89
2023/03/05 12:08:42;;;;;;;18.53;16.80;;;5.20;67.70;;;;;;4977058;28;20257;-90
2023/03/05 12:11:18;;;;;;;15.53;14.37;;;5.20;67.20;;;;;;4959332;28;20166;-90
2023/03/05 12:14:04;;;;;;;13.50;12.60;;;5.20;67.60;;;;;;4976772;28;20166;-89
2023/03/05 12:16:40;;;;;;;15.10;13.60;;;5.20;67.90;;;;;;4976853;28;20205;-89
2023/03/05 12:19:30;;;;;;;19.07;17.53;;;5.20;68.10;;;;;;4959254;28;20660;-90
2023/03/05 12:21:56;;;;;;;17.13;15.97;;;4.90;69.80;;;;;;4976718;28;20194;-89
2023/03/05 12:24:22;;;;;;;11.40;10.60;;;4.80;71.00;;;;;;4976888;28;20182;-89
2023/03/05 12:27:02;;;;;;;11.60;10.37;;;4.60;74.10;;;;;;4959135;28;20205;-90
2023/03/05 12:29:45;;;;;;;10.20;9.30;;;4.40;77.30;;;;;;4959758;28;20184;-90
2023/03/05 12:32:30;;;;;;;8.73;8.03;;;4.40;79.10;;;;;;4976667;28;20265;-90
2023/03/05 12:34:56;;;;;;;13.87;12.83;;;4.30;80.60;;;;;;4959046;28;20166;-89
2023/03/05 12:37:22;;;;;;;8.57;7.97;;;4.30;81.20;;;;;;4959575;28;20217;-90
2023/03/05 12:40:06;;;;;;;8.30;7.70;;;4.50;81.90;;;;;;4958998;28;20232;-91
2023/03/05 12:42:32;;;;;;;12.07;11.27;;;4.60;81.80;;;;;;4959758;28;20170;-89
2023/03/05 12:45:15;;;;;;;11.87;10.83;;;4.50;81.60;;;;;;4976296;28;20196;-90
2023/03/05 12:47:43;;;;;;;9.87;8.87;;;4.50;81.60;;;;;;4958610;28;20210;-91
2023/03/05 12:50:27;;;;;;;12.70;11.60;;;4.30;81.00;;;;;;4975935;28;20174;-90
2023/03/05 12:52:57;;;;;;;12.80;11.60;;;4.40;81.20;;;;;;4959591;28;20204;-90
2023/03/05 12:55:27;;;;;;;9.57;8.77;;;4.30;80.50;;;;;;4958504;28;20204;-90
2023/03/05 12:58:03;;;;;;;8.90;8.23;;;4.30;80.60;;;;;;4958479;28;20271;-90
2023/03/05 13:00:38;;;;;;;10.20;9.33;;;4.30;81.20;;;;;;4958484;28;20177;-90
2023/03/05 13:03:10;;;;;;;8.80;8.00;;;4.60;81.40;;;;;;4976053;28;20164;-89
2023/03/05 13:05:38;;;;;;;10.20;9.37;;;4.70;81.40;;;;;;4975727;28;20249;-90
2023/03/05 13:08:23;;;;;;;9.60;7.73;;;4.80;81.20;;;;;;4957440;28;20200;-90
2023/03/05 13:11:07;;;;;;;8.63;7.50;;;5.10;80.80;;;;;;4975599;28;20259;-90
2023/03/05 13:13:37;;;;;;;13.23;8.00;;;5.30;79.60;;;;;;4975448;28;20220;-91
2023/03/05 13:16:03;;;;;;;14.10;8.47;;;5.30;78.80;;;;;;4975826;28;20599;-90
2023/03/05 13:18:34;;;;;;;8.63;7.93;;;5.20;78.80;;;;;;4958202;28;20194;-88
2023/03/05 13:21:24;;;;;;;9.10;8.20;;;5.20;79.20;;;;;;4958274;28;20244;-89
2023/03/05 13:23:56;;;;;;;10.37;9.40;;;5.20;78.40;;;;;;4958284;28;20179;-89
2023/03/05 13:26:26;;;;;;;11.90;9.87;;;5.00;77.90;;;;;;4958291;28;20205;-87
2023/03/05 13:29:13;;;;;;;13.10;9.50;;;4.80;78.40;;;;;;4958049;28;20181;-89
2023/03/05 13:31:53;;;;;;;11.77;9.33;;;4.80;77.40;;;;;;4957775;28;20296;-89
2023/03/05 13:34:25;;;;;;;12.63;8.20;;;4.90;78.10;;;;;;4957907;28;20169;-89
2023/03/05 13:36:54;;;;;;;11.53;9.10;;;5.00;77.80;;;;;;4957829;28;20195;-89
2023/03/05 13:39:23;;;;;;;12.20;9.23;;;5.00;77.30;;;;;;4974977;28;20175;-89
2023/03/05 13:42:02;;;;;;;10.23;9.33;;;5.10;77.90;;;;;;4975237;28;20177;-89
2023/03/05 13:44:29;;;;;;;9.67;8.67;;;5.00;77.20;;;;;;4975101;28;20196;-89
2023/03/05 13:47:19;;;;;;;11.57;9.30;;;5.00;76.90;;;;;;4957618;28;20573;-91
2023/03/05 13:49:46;;;;;;;11.40;8.80;;;5.10;77.50;;;;;;4958390;28;20614;-91
2023/03/05 13:52:21;;;;;;;9.93;9.03;;;5.30;77.50;;;;;;4975485;28;20561;-90
2023/03/05 13:54:47;;;;;;;9.03;8.23;;;5.00;76.20;;;;;;4958090;28;20165;-88
2023/03/05 13:57:33;;;;;;;9.00;8.33;;;5.00;77.90;;;;;;4974798;28;20200;-90
2023/03/05 13:59:59;;;;;;;14.33;8.57;;;4.90;78.40;;;;;;4974969;28;20166;-89
2023/03/05 14:02:27;;;;;;;12.63;8.07;;;4.80;79.00;;;;;;4974723;28;20170;-89
2023/03/05 14:04:53;;;;;;;10.83;8.30;;;4.80;78.50;;;;;;4957556;28;20193;-89
2023/03/05 14:07:19;;;;;;;13.77;8.70;;;5.00;78.90;;;;;;4958150;28;20205;-89
2023/03/05 14:09:48;;;;;;;8.70;8.10;;;5.10;78.70;;;;;;4957565;28;20185;-89
2023/03/05 14:12:36;;;;;;;8.80;8.00;;;5.10;78.80;;;;;;4957517;28;20202;-89
2023/03/05 14:15:19;;;;;;;9.27;8.30;;;5.30;78.10;;;;;;4974744;28;20158;-89
2023/03/05 14:17:46;;;;;;;9.67;8.47;;;5.40;77.30;;;;;;4957297;28;20197;-89
2023/03/05 14:20:23;;;;;;;9.77;8.83;;;5.40;77.70;;;;;;4957365;28;20254;-89
2023/03/05 14:22:52;;;;;;;9.30;8.40;;;5.30;76.60;;;;;;4957452;28;20219;-87
2023/03/05 14:25:28;;;;;;;9.07;8.13;;;5.00;77.90;;;;;;4957172;28;20228;-88
2023/03/05 14:27:55;;;;;;;10.60;9.63;;;5.20;77.50;;;;;;4974634;28;20197;-88
2023/03/05 14:30:23;;;;;;;11.70;9.57;;;5.10;76.90;;;;;;4957260;28;20185;-88
2023/03/05 14:32:51;;;;;;;10.33;9.43;;;5.20;77.00;;;;;;4957002;28;20206;-89
2023/03/05 14:35:20;;;;;;;10.40;9.60;;;5.20;76.70;;;;;;4957554;28;20184;-88
2023/03/05 14:37:48;;;;;;;10.27;9.57;;;5.00;75.30;;;;;;4957066;28;20203;-90
2023/03/05 14:40:13;;;;;;;10.13;9.27;;;5.00;75.30;;;;;;4957531;28;20181;-90
2023/03/05 14:42:50;;;;;;;9.83;9.23;;;5.00;76.30;;;;;;4957096;28;20189;-90
2023/03/05 14:45:18;;;;;;;9.00;8.27;;;4.90;76.40;;;;;;4974661;28;20737;-90
2023/03/05 14:47:44;;;;;;;10.93;8.23;;;4.70;77.90;;;;;;4974534;28;20196;-90
2023/03/05 14:50:21;;;;;;;10.03;7.70;;;4.70;78.50;;;;;;4974226;28;20272;-90
2023/03/05 14:52:49;;;;;;;8.90;8.00;;;4.80;78.60;;;;;;4974799;28;20734;-90
2023/03/05 14:55:17;;;;;;;10.00;7.37;;;4.80;78.40;;;;;;4957470;28;20181;-89
2023/03/05 14:57:43;;;;;;;10.70;7.50;;;4.50;79.10;;;;;;4974061;28;20256;-90
2023/03/05 15:00:22;;;;;;;8.13;7.23;;;4.50;79.90;;;;;;4974358;28;20180;-90
2023/03/05 15:02:47;;;;;;;9.27;7.77;;;4.60;80.40;;;;;;4974168;28;20546;-90
2023/03/05 15:05:14;;;;;;;8.03;7.43;;;4.60;80.00;;;;;;4957522;28;20181;-89
2023/03/05 15:07:41;;;;;;;9.03;8.10;;;4.70;79.40;;;;;;4956793;28;20205;-90
2023/03/05 15:10:08;;;;;;;10.43;8.30;;;4.40;78.40;;;;;;4974344;28;20175;-90
2023/03/05 15:12:33;;;;;;;8.30;7.47;;;4.30;79.80;;;;;;4956629;28;20201;-90
2023/03/05 15:14:59;;;;;;;7.60;7.00;;;4.20;80.90;;;;;;4956660;28;20334;-89
2023/03/05 15:17:33;;;;;;;9.23;7.07;;;4.20;81.60;;;;;;4956881;28;20283;-90
2023/03/05 15:19:59;;;;;;;11.60;7.13;;;4.20;81.90;;;;;;4974259;28;20186;-89
2023/03/05 15:22:25;;;;;;;7.40;6.87;;;4.00;81.50;;;;;;4956770;28;20181;-90
2023/03/05 15:24:51;;;;;;;7.67;6.93;;;3.90;81.80;;;;;;4956597;28;20193;-89
2023/03/05 15:27:16;;;;;;;7.50;6.80;;;3.80;82.20;;;;;;4973860;28;20205;-90
2023/03/05 15:29:42;;;;;;;10.53;6.40;;;3.90;82.60;;;;;;4974123;28;20157;-90
2023/03/05 15:32:08;;;;;;;10.30;6.50;;;3.90;82.70;;;;;;4975614;28;20200;-89
2023/03/05 15:34:34;;;;;;;8.00;6.53;;;3.80;83.50;;;;;;4977360;28;20185;-90
2023/03/05 15:37:01;;;;;;;7.13;6.00;;;3.70;84.00;;;;;;4960040;28;20772;-90
2023/03/05 15:39:27;;;;;;;9.17;6.87;;;3.80;83.90;;;;;;4977476;28;20603;-90
2023/03/05 15:41:53;;;;;;;7.37;6.57;;;3.80;83.60;;;;;;4977215;28;20264;-90
2023/03/05 15:44:19;;;;;;;6.93;6.43;;;3.80;83.30;;;;;;4977156;28;20275;-90
2023/03/05 15:46:45;;;;;;;8.20;7.30;;;3.80;82.60;;;;;;4977224;28;20200;-90
2023/03/05 15:49:11;;;;;;;8.07;7.37;;;3.70;81.70;;;;;;4960040;28;20203;-89
2023/03/05 15:51:37;;;;;;;7.93;7.10;;;3.60;80.90;;;;;;4959771;28;20206;-90
2023/03/05 15:54:03;;;;;;;9.17;7.47;;;3.50;81.70;;;;;;4976964;28;20206;-89
2023/03/05 15:56:28;;;;;;;8.10;7.30;;;3.60;81.90;;;;;;4977219;28;20190;-88
2023/03/05 15:58:54;;;;;;;7.30;5.80;;;3.50;82.50;;;;;;4959568;28;20170;-89
2023/03/05 16:01:19;;;;;;;8.33;5.97;;;3.40;83.00;;;;;;4959947;28;20183;-89
2023/03/05 16:03:45;;;;;;;6.47;5.90;;;3.50;83.30;;;;;;4959637;28;20229;-89
2023/03/05 16:06:14;;;;;;;5.97;5.37;;;3.50;83.30;;;;;;4959520;28;20172;-90
2023/03/05 16:08:41;;;;;;;7.13;5.50;;;3.30;83.30;;;;;;4976857;28;20684;-89
2023/03/05 16:11:07;;;;;;;7.03;5.70;;;3.30;83.90;;;;;;4959596;28;20175;-89
2023/03/05 16:13:33;;;;;;;9.80;5.10;;;3.20;84.00;;;;;;4976874;28;20268;-89
2023/03/05 16:16:06;;;;;;;5.73;5.30;;;3.30;84.50;;;;;;4959566;28;20204;-90
2023/03/05 16:18:35;;;;;;;22.37;7.50;;;3.30;84.50;;;;;;4977284;28;20180;-90